createdAt,value
2023-03-14T00:02:01.799Z,97618.56
2023-03-14T00:04:31.071Z,97607.88
2023-03-14T00:06:57.761Z,97603.28
2023-03-14T00:09:24.471Z,97596.31
2023-03-14T00:11:51.278Z,97584.53
2023-03-14T00:14:17.976Z,97586.72
2023-03-14T00:16:47.243Z,97584.81
2023-03-14T00:19:13.901Z,97590.16
2023-03-14T00:21:40.623Z,97586.19
2023-03-14T00:24:08.178Z,97580.03
2023-03-14T00:26:34.862Z,97580.03
2023-03-14T00:29:03.988Z,97571.75
2023-03-14T00:31:31.917Z,97581.09
2023-03-14T00:33:58.586Z,97570.16
2023-03-14T00:36:25.355Z,97560.78
2023-03-14T00:38:52.905Z,97556.75
2023-03-14T00:41:23.414Z,97560.78
2023-03-14T00:43:50.606Z,97570.94
2023-03-14T00:46:17.613Z,97560.50
2023-03-14T00:48:46.695Z,97549.25
2023-03-14T00:51:15.931Z,97559.69
2023-03-14T00:53:44.567Z,97544.22
2023-03-14T00:56:12.560Z,97535.09
2023-03-14T00:58:39.413Z,97522.00
2023-03-14T01:01:10.764Z,97532.72
2023-03-14T01:03:37.656Z,97524.69
2023-03-14T01:06:11.704Z,97528.16
2023-03-14T01:08:38.743Z,97525.19
2023-03-14T01:11:10.578Z,97516.63
2023-03-14T01:13:37.817Z,97506.22
2023-03-14T01:16:07.512Z,97502.72
2023-03-14T01:18:38.660Z,97501.66
2023-03-14T01:21:12.743Z,97499.78
2023-03-14T01:23:39.499Z,97488.03
2023-03-14T01:26:10.385Z,97485.88
2023-03-14T01:28:37.806Z,97494.16
2023-03-14T01:31:06.429Z,97493.91
2023-03-14T01:33:33.347Z,97493.09
2023-03-14T01:36:00.187Z,97474.91
2023-03-14T01:38:27.241Z,97476.78
2023-03-14T01:40:54.168Z,97466.38
2023-03-14T01:44:37.321Z,97466.09
2023-03-14T01:47:04.447Z,97476.50
2023-03-14T01:49:34.697Z,97478.88
2023-03-14T01:52:21.603Z,97473.25
2023-03-14T01:54:54.288Z,97480.16
2023-03-14T01:57:29.070Z,97482.53
2023-03-14T02:00:17.860Z,97492.34
2023-03-14T02:02:51.669Z,97495.25
2023-03-14T02:05:23.675Z,97492.56
2023-03-14T02:07:57.736Z,97491.72
2023-03-14T02:10:30.443Z,97492.47
2023-03-14T02:13:02.425Z,97486.00
2023-03-14T02:15:52.439Z,97476.31
2023-03-14T02:18:51.416Z,97483.13
2023-03-14T02:22:14.582Z,97480.81
2023-03-14T02:25:13.272Z,97485.66
2023-03-14T02:27:43.768Z,97484.78
2023-03-14T02:30:26.133Z,97490.81
2023-03-14T02:32:56.377Z,97491.72
2023-03-14T02:35:25.583Z,97501.25
2023-03-14T02:38:06.554Z,97514.50
2023-03-14T02:40:37.704Z,97537.28
2023-03-14T02:43:04.448Z,97541.88
2023-03-14T02:45:41.369Z,97533.59
2023-03-14T02:48:18.206Z,97541.16
2023-03-14T02:50:49.698Z,97539.78
2023-03-14T02:53:23.162Z,97562.91
2023-03-14T02:55:53.381Z,97583.53
2023-03-14T02:58:22.969Z,97596.56
2023-03-14T03:00:54.908Z,97604.69
2023-03-14T03:03:23.474Z,97599.06
2023-03-14T03:05:52.252Z,97589.38
2023-03-14T03:08:27.467Z,97606.00
2023-03-14T03:10:55.856Z,97606.00
2023-03-14T03:13:22.505Z,97627.78
2023-03-14T03:15:53.560Z,97619.09
2023-03-14T03:18:20.352Z,97618.81
2023-03-14T03:20:47.079Z,97620.06
2023-03-14T03:23:15.376Z,97614.16
2023-03-14T03:25:42.150Z,97623.28
2023-03-14T03:28:09.080Z,97624.88
2023-03-14T03:30:42.578Z,97627.31
2023-03-14T03:33:09.590Z,97640.84
2023-03-14T03:35:42.358Z,97657.28
2023-03-14T03:38:12.810Z,97641.66
2023-03-14T03:40:40.030Z,97642.88
2023-03-14T03:43:08.112Z,97638.34
2023-03-14T03:45:37.709Z,97655.59
2023-03-14T03:48:05.825Z,97649.88
2023-03-14T03:50:32.764Z,97645.66
2023-03-14T03:52:59.670Z,97649.13
2023-03-14T03:55:27.382Z,97663.97
2023-03-14T03:57:56.842Z,97656.94
2023-03-14T04:00:24.943Z,97660.41
2023-03-14T04:02:51.868Z,97659.59
2023-03-14T04:05:21.471Z,97648.50
2023-03-14T04:07:54.889Z,97657.41
2023-03-14T04:10:25.372Z,97664.16
2023-03-14T04:13:24.851Z,97658.84
2023-03-14T04:15:55.536Z,97656.59
2023-03-14T04:18:27.728Z,97670.03
2023-03-14T04:20:55.628Z,97669.00
2023-03-14T04:23:26.618Z,97686.44
2023-03-14T04:25:54.158Z,97688.75
2023-03-14T04:28:22.718Z,97696.81
2023-03-14T04:30:53.951Z,97705.06
2023-03-14T04:33:23.479Z,97703.63
2023-03-14T04:48:22.829Z,97700.66
2023-03-14T04:50:52.400Z,97689.69
2023-03-14T04:53:19.585Z,97685.66
2023-03-14T04:55:50.626Z,97715.94
2023-03-14T04:58:18.018Z,97723.56
2023-03-14T05:00:45.801Z,97707.91
2023-03-14T05:03:32.781Z,97714.50
2023-03-14T05:06:00.006Z,97714.28
2023-03-14T05:09:06.125Z,97690.84
2023-03-14T05:11:52.801Z,97704.53
2023-03-14T05:14:38.194Z,97724.09
2023-03-14T05:17:21.039Z,97729.19
2023-03-14T05:20:25.854Z,97731.88
2023-03-14T05:23:12.981Z,97740.66
2023-03-14T05:26:06.234Z,97749.44
2023-03-14T05:28:49.498Z,97736.97
2023-03-14T05:31:48.486Z,97734.63
2023-03-14T05:34:50.723Z,97727.59
2023-03-14T05:37:35.609Z,97720.72
2023-03-14T05:40:20.438Z,97722.63
2023-03-14T05:43:05.808Z,97731.78
2023-03-14T05:45:34.509Z,97738.00
2023-03-14T05:48:13.688Z,97755.69
2023-03-14T05:51:05.533Z,97775.50
2023-03-14T05:53:42.894Z,97766.47
2023-03-14T05:56:20.620Z,97766.66
2023-03-14T05:59:10.022Z,97775.63
2023-03-14T06:01:46.058Z,97779.75
2023-03-14T06:04:19.736Z,97770.00
2023-03-14T06:06:53.293Z,97771.69
2023-03-14T06:09:24.446Z,97777.91
2023-03-14T06:11:53.556Z,97783.38
2023-03-14T06:14:20.350Z,97776.47
2023-03-14T06:16:51.781Z,97798.09
2023-03-14T06:19:20.095Z,97799.03
2023-03-14T06:21:47.352Z,97802.84
2023-03-14T06:24:14.032Z,97796.72
2023-03-14T06:26:45.441Z,97794.44
2023-03-14T06:29:12.190Z,97793.69
2023-03-14T06:31:39.023Z,97790.63
2023-03-14T06:34:07.979Z,97796.22
2023-03-14T06:36:34.753Z,97814.69
2023-03-14T06:39:01.439Z,97810.00
2023-03-14T06:41:30.889Z,97801.81
2023-03-14T06:43:59.005Z,97793.53
2023-03-14T06:46:26.765Z,97789.38
2023-03-14T06:48:54.556Z,97780.91
2023-03-14T06:51:21.306Z,97798.38
2023-03-14T06:53:49.082Z,97794.22
2023-03-14T06:56:17.125Z,97793.00
2023-03-14T06:58:43.786Z,97796.13
2023-03-14T07:01:32.304Z,97783.94
2023-03-14T07:04:06.103Z,97789.22
2023-03-14T07:06:34.987Z,97791.03
2023-03-14T07:09:03.037Z,97784.81
2023-03-14T07:11:30.901Z,97798.28
2023-03-14T07:13:57.762Z,97808.25
2023-03-14T07:16:25.405Z,97813.41
2023-03-14T07:18:53.129Z,97817.53
2023-03-14T07:21:19.898Z,97813.28
2023-03-14T07:23:46.775Z,97812.25
2023-03-14T07:26:14.496Z,97811.47
2023-03-14T07:28:46.324Z,97802.63
2023-03-14T07:31:17.001Z,97811.22
2023-03-14T07:33:43.945Z,97828.09
2023-03-14T07:36:11.043Z,97832.66
2023-03-14T07:38:39.278Z,97836.69
2023-03-14T07:41:24.166Z,97846.34
2023-03-14T07:44:09.458Z,97828.19
2023-03-14T07:46:36.170Z,97834.09
2023-03-14T07:49:02.840Z,97830.09
2023-03-14T07:51:31.678Z,97840.00
2023-03-14T07:53:58.327Z,97825.31
2023-03-14T07:56:25.128Z,97824.22
2023-03-14T07:58:51.731Z,97823.69
2023-03-14T08:01:18.373Z,97815.63
2023-03-14T08:03:45.029Z,97823.16
2023-03-14T08:06:11.659Z,97821.78
2023-03-14T08:08:38.324Z,97808.13
2023-03-14T08:11:11.823Z,97802.22
2023-03-14T08:13:38.955Z,97803.00
2023-03-14T08:16:06.130Z,97789.00
2023-03-14T08:18:33.198Z,97789.25
2023-03-14T08:20:59.899Z,97779.56
2023-03-14T08:23:29.320Z,97783.59
2023-03-14T08:25:55.992Z,97783.56
2023-03-14T08:28:22.709Z,97781.69
2023-03-14T08:30:49.484Z,97776.03
2023-03-14T08:33:16.167Z,97778.22
2023-03-14T08:35:43.059Z,97780.63
2023-03-14T08:38:09.991Z,97789.50
2023-03-14T08:40:36.611Z,97786.88
2023-03-14T08:43:03.319Z,97782.31
2023-03-14T08:45:30.048Z,97788.19
2023-03-14T08:47:56.651Z,97770.75
2023-03-14T08:50:24.369Z,97772.06
2023-03-14T08:52:51.167Z,97772.84
2023-03-14T08:55:17.972Z,97773.91
2023-03-14T08:57:44.649Z,97769.03
2023-03-14T09:00:15.184Z,97770.63
2023-03-14T09:02:44.112Z,97768.66
2023-03-14T09:05:11.462Z,97770.75
2023-03-14T09:07:39.058Z,97764.72
2023-03-14T09:10:06.799Z,97761.72
2023-03-14T09:12:35.949Z,97768.94
2023-03-14T09:15:02.849Z,97769.38
2023-03-14T09:17:29.518Z,97755.78
2023-03-14T09:19:57.619Z,97747.03
2023-03-14T09:22:25.567Z,97749.47
2023-03-14T09:24:52.418Z,97745.44
2023-03-14T09:27:19.179Z,97747.69
2023-03-14T09:29:45.815Z,97748.59
2023-03-14T09:32:12.521Z,97756.69
2023-03-14T09:34:39.188Z,97750.06
2023-03-14T09:37:05.901Z,97751.22
2023-03-14T09:39:32.642Z,97745.81
2023-03-14T09:42:03.990Z,97752.75
2023-03-14T09:44:33.985Z,97733.78
2023-03-14T09:47:08.468Z,97733.63
2023-03-14T09:49:37.897Z,97733.19
2023-03-14T09:52:26.244Z,97747.38
2023-03-14T09:55:00.456Z,97738.16
2023-03-14T09:57:28.127Z,97739.09
2023-03-14T09:59:58.341Z,97733.84
2023-03-14T10:02:27.472Z,97722.09
2023-03-14T10:04:55.412Z,97727.31
2023-03-14T10:07:30.698Z,97733.59
2023-03-14T10:09:58.484Z,97734.91
2023-03-14T10:12:36.365Z,97733.09
2023-03-14T10:15:06.471Z,97729.75
2023-03-14T10:17:40.469Z,97728.91
2023-03-14T10:20:07.562Z,97730.63
2023-03-14T10:22:34.424Z,97718.00
2023-03-14T10:25:08.282Z,97727.09
2023-03-14T10:27:36.877Z,97733.53
2023-03-14T10:30:09.314Z,97738.75
2023-03-14T10:32:38.660Z,97731.13
2023-03-14T10:35:14.553Z,97725.59
2023-03-14T10:38:00.932Z,97725.78
2023-03-14T10:40:41.903Z,97722.22
2023-03-14T10:43:15.095Z,97713.94
2023-03-14T10:45:44.365Z,97729.00
2023-03-14T10:48:24.556Z,97722.31
2023-03-14T10:50:55.737Z,97718.09
2023-03-14T10:53:27.560Z,97714.72
2023-03-14T10:55:56.957Z,97707.91
2023-03-14T10:58:23.521Z,97711.81
2023-03-14T11:01:16.927Z,97715.22
2023-03-14T11:03:55.736Z,97717.53
2023-03-14T11:06:30.105Z,97721.63
2023-03-14T11:09:13.793Z,97722.31
2023-03-14T11:11:41.112Z,97720.81
2023-03-14T11:14:32.872Z,97718.44
2023-03-14T11:17:18.448Z,97720.00
2023-03-14T11:20:09.714Z,97744.78
2023-03-14T11:22:49.116Z,97721.94
2023-03-14T11:25:34.035Z,97748.69
2023-03-14T11:28:16.784Z,97758.09
2023-03-14T11:30:51.840Z,97744.81
2023-03-14T11:33:26.221Z,97757.91
2023-03-14T11:36:11.799Z,97754.34
2023-03-14T11:38:47.603Z,97761.25
2023-03-14T11:41:21.367Z,97765.63
2023-03-14T11:43:50.156Z,97752.00
2023-03-14T11:46:21.924Z,97743.44
2023-03-14T11:49:03.342Z,97743.81
2023-03-14T11:51:40.636Z,97751.81
2023-03-14T12:37:45.563Z,97735.00
2023-03-14T12:40:23.249Z,97728.13
2023-03-14T12:43:11.582Z,97718.03
2023-03-14T12:46:05.518Z,97728.34
2023-03-14T12:48:35.308Z,97722.56
2023-03-14T12:51:13.365Z,97721.59
2023-03-14T12:53:49.867Z,97719.38
2023-03-14T12:56:23.051Z,97733.13
2023-03-14T12:59:32.158Z,97722.88
2023-03-14T13:02:22.264Z,97716.19
2023-03-14T13:05:14.917Z,97716.41
2023-03-14T13:08:17.970Z,97711.31
2023-03-14T13:10:58.167Z,97722.25
2023-03-14T13:13:33.099Z,97735.00
2023-03-14T13:16:33.347Z,97718.88
2023-03-14T13:19:13.812Z,97729.84
2023-03-14T13:28:25.047Z,97741.31
2023-03-14T13:31:09.470Z,97743.78
2023-03-14T13:37:06.155Z,97741.19
2023-03-14T13:39:58.427Z,97752.72
2023-03-14T13:46:26.928Z,97738.75
2023-03-14T13:49:03.960Z,97740.91
2023-03-14T13:51:43.702Z,97748.69
2023-03-14T13:54:27.970Z,97744.94
2023-03-14T13:57:06.388Z,97760.56
2023-03-14T14:03:57.727Z,97776.16
2023-03-14T14:09:36.736Z,97784.84
2023-03-14T14:15:56.697Z,97786.63
2023-03-14T14:21:52.401Z,97789.63
2023-03-14T14:24:26.731Z,97789.38
2023-03-14T14:27:05.425Z,97801.47
2023-03-14T14:29:43.652Z,97806.09
2023-03-14T14:32:16.861Z,97805.78
2023-03-14T14:34:58.287Z,97813.84
2023-03-14T14:37:30.824Z,97816.75
2023-03-14T14:40:13.011Z,97813.00
2023-03-14T14:42:47.672Z,97812.47
2023-03-14T14:45:23.565Z,97808.44
2023-03-14T14:52:35.871Z,97805.59
2023-03-14T14:55:16.013Z,97798.38
2023-03-14T14:57:54.535Z,97813.41
2023-03-14T15:00:30.699Z,97815.06
2023-03-14T15:03:03.518Z,97804.63
2023-03-14T15:05:33.471Z,97800.59
2023-03-14T15:08:18.270Z,97801.16
2023-03-14T15:10:50.367Z,97795.78
2023-03-14T15:13:28.003Z,97797.34
2023-03-14T15:16:01.187Z,97789.56
2023-03-14T15:18:35.917Z,97778.84
2023-03-14T15:21:14.480Z,97780.97
2023-03-14T15:23:42.037Z,97768.63
2023-03-14T15:26:20.260Z,97772.13
2023-03-14T15:28:52.076Z,97775.13
2023-03-14T15:31:32.908Z,97770.56
2023-03-14T15:34:02.635Z,97765.22
2023-03-14T15:36:33.964Z,97760.66
2023-03-14T15:39:11.012Z,97746.69
2023-03-14T15:41:38.164Z,97747.50
2023-03-14T15:44:07.038Z,97753.66
2023-03-14T15:46:35.805Z,97752.59
2023-03-14T15:49:07.881Z,97748.59
2023-03-14T15:51:36.406Z,97739.50
2023-03-14T15:54:05.745Z,97737.59
2023-03-14T15:56:39.989Z,97730.91
2023-03-14T15:59:07.357Z,97729.84
2023-03-14T16:01:34.175Z,97732.53
2023-03-14T16:04:04.670Z,97734.66
2023-03-14T16:06:36.513Z,97727.69
2023-03-14T16:09:03.736Z,97742.97
2023-03-14T16:11:38.371Z,97736.53
2023-03-14T16:14:09.532Z,97745.63
2023-03-14T16:16:38.291Z,97753.97
2023-03-14T16:19:09.674Z,97753.97
2023-03-14T16:21:39.151Z,97760.41
2023-03-14T16:24:08.796Z,97762.28
2023-03-14T16:26:37.506Z,97767.66
2023-03-14T16:29:04.694Z,97759.34
2023-03-14T16:31:31.916Z,97773.00
2023-03-14T16:34:03.804Z,97779.72
2023-03-14T16:36:35.738Z,97782.38
2023-03-14T16:39:04.481Z,97774.91
2023-03-14T16:41:31.867Z,97768.97
2023-03-14T16:44:13.621Z,97769.53
2023-03-14T16:46:42.248Z,97766.56
2023-03-14T16:49:09.009Z,97773.53
2023-03-14T16:51:42.080Z,97768.69
2023-03-14T16:54:16.662Z,97785.56
2023-03-14T16:56:45.395Z,97791.22
2023-03-14T17:01:43.017Z,97793.88
2023-03-14T17:04:14.974Z,97799.75
2023-03-14T17:06:50.218Z,97800.56
2023-03-14T17:09:24.024Z,97812.88
2023-03-14T17:11:58.712Z,97804.00
2023-03-14T17:14:29.297Z,97811.50
2023-03-14T17:16:56.471Z,97821.91
2023-03-14T17:19:24.039Z,97818.94
2023-03-14T17:21:54.929Z,97821.59
2023-03-14T17:24:24.747Z,97825.38
2023-03-14T17:26:54.720Z,97822.69
2023-03-14T17:29:23.766Z,97828.47
2023-03-14T17:31:53.975Z,97844.28
2023-03-14T17:34:25.060Z,97844.56
2023-03-14T17:37:10.758Z,97856.06
2023-03-14T17:39:39.556Z,97850.97
2023-03-14T17:42:26.327Z,97864.63
2023-03-14T17:44:55.523Z,97863.22
2023-03-14T17:47:24.315Z,97857.56
2023-03-14T17:49:51.058Z,97856.75
2023-03-14T17:52:20.354Z,97867.97
2023-03-14T17:54:47.404Z,97861.06
2023-03-14T17:57:18.103Z,97866.66
2023-03-14T17:59:50.406Z,97872.50
2023-03-14T18:02:18.439Z,97867.94
2023-03-14T18:04:52.359Z,97873.84
2023-03-14T18:07:20.814Z,97882.69
2023-03-14T18:09:51.364Z,97882.16
2023-03-14T18:12:23.353Z,97885.88
2023-03-14T18:14:52.436Z,97902.22
2023-03-14T18:17:38.230Z,97901.41
2023-03-14T18:20:10.107Z,97909.47
2023-03-14T18:22:37.287Z,97920.19
2023-03-14T18:25:05.437Z,97925.25
2023-03-14T18:27:33.971Z,97927.41
2023-03-14T18:30:01.024Z,97934.94
2023-03-14T18:32:27.992Z,97945.59
2023-03-14T18:34:56.091Z,97955.25
2023-03-14T18:37:22.828Z,97952.22
2023-03-14T18:39:53.186Z,97953.78
2023-03-14T18:42:20.849Z,97973.84
2023-03-14T18:44:50.112Z,97980.03
2023-03-14T18:47:20.296Z,97979.41
2023-03-14T18:49:49.256Z,97994.97
2023-03-14T18:52:17.921Z,97994.16
2023-03-14T18:54:47.063Z,98005.38
2023-03-14T18:57:18.135Z,98018.22
2023-03-14T18:59:48.469Z,98021.44
2023-03-14T19:02:16.652Z,98032.47
2023-03-14T19:04:44.140Z,98038.56
2023-03-14T19:07:14.064Z,98049.81
2023-03-14T19:09:51.080Z,98069.97
2023-03-14T19:12:19.058Z,98055.09
2023-03-14T19:14:51.472Z,98067.75
2023-03-14T19:17:19.697Z,98064.03
2023-03-14T19:19:48.898Z,98042.38
2023-03-14T19:22:17.039Z,98058.22
2023-03-14T19:24:44.278Z,98044.00
2023-03-14T19:27:12.230Z,98044.78
2023-03-14T19:29:42.398Z,98043.16
2023-03-14T19:32:13.639Z,98051.53
2023-03-14T19:34:44.151Z,98051.75
2023-03-14T19:37:22.297Z,98040.25
2023-03-14T19:39:54.253Z,98057.13
2023-03-14T19:42:22.186Z,98058.72
2023-03-14T19:44:56.990Z,98065.69
2023-03-14T19:47:30.191Z,98078.25
2023-03-14T19:50:03.838Z,98085.81
2023-03-14T19:56:37.236Z,98087.13
2023-03-14T19:59:20.580Z,98081.25
2023-03-14T20:05:11.754Z,98101.28
2023-03-14T20:08:04.796Z,98105.88
2023-03-14T20:11:02.618Z,98121.06
2023-03-14T20:13:34.674Z,98109.28
2023-03-14T20:16:12.676Z,98124.03
2023-03-14T20:18:44.546Z,98122.94
2023-03-14T20:21:21.881Z,98108.38
2023-03-14T20:23:58.948Z,98127.97
2023-03-14T20:26:37.027Z,98113.28
2023-03-14T20:30:00.121Z,98141.03
2023-03-14T20:36:03.691Z,98145.00
2023-03-14T20:38:38.946Z,98156.25
2023-03-14T20:41:19.977Z,98149.22
2023-03-14T20:44:17.293Z,98153.94
2023-03-14T20:46:55.688Z,98137.75
2023-03-14T20:49:31.924Z,98157.88
2023-03-14T20:52:02.618Z,98155.72
2023-03-14T20:54:54.706Z,98152.38
2023-03-14T20:57:29.290Z,98160.94
2023-03-14T21:00:09.029Z,98165.97
2023-03-14T21:07:43.099Z,98171.50
2023-03-14T21:10:31.853Z,98161.31
2023-03-14T21:20:43.384Z,98182.78
2023-03-14T21:23:31.746Z,98188.63
2023-03-14T21:29:42.336Z,98156.63
2023-03-14T21:39:34.560Z,98189.91
2023-03-14T21:42:21.098Z,98199.97
2023-03-14T21:48:14.973Z,98169.28
2023-03-14T22:07:00.450Z,98172.47
2023-03-14T22:09:40.519Z,98174.19
2023-03-14T22:12:19.693Z,98152.00
2023-03-14T22:15:33.325Z,98157.66
2023-03-14T22:22:20.500Z,98153.78
2023-03-14T22:25:04.246Z,98175.25
2023-03-14T22:57:32.839Z,98204.78
2023-03-14T23:33:05.044Z,98256.84
2023-03-14T23:55:17.900Z,98305.53
